HAF weather

Half Moon Bay Airport
Half Moon Bay, California, United States

Public forecast

Using degrees Fahrenheit for public forecast. Weather courtesy of forecast.io.

METAR (pilot weather report)

Retrieved 2019/05/21 00:40 UTC (11 minutes ago):

KHAF 210040Z AUTO 25008KT 9SM BKN019 14/10 A3003 RMK AO2

TAF (pilot weather forecast)

Forecast is more than 12 hours old.

Closest forecast is San Francisco International Airport, 8.7 nm (16.2 km) NE. Retrieved 2019/05/20 00:34 UTC (1 day ago):

TAF KSFO 202332Z 2100/2206 26011KT P6SM SCT028 FM210500 24008KT P6SM VCSH BKN035 FM210700 26014KT P6SM -SHRA BKN030 BKN050 FM211200 25014G22KT P6SM -SHRA BKN030 BKN050 FM211800 26020G26KT P6SM -SHRA BKN035 FM220300 26018KT P6SM VCSH BKN045